TAM3454 SBCF-SBPA
Flight info
| Callsign | TAM3454 |
|---|---|
| Flight time | 1h 56m |
| Altitude | 36000 |
| Route | VASIX1A DEUCA UZ21 VUNOX UZ38 VUKMO BUXEV3A |
| Aircraft | A321/M-SDE3FGHIRWY/LB1 |
Departure
| Time | 2026-04-26 23:04 |
|---|---|
| Airport | Tancredo Neves International Airport (SBCF) |
Arrival
| Time | 2026-04-27 01:01 |
|---|---|
| Airport | Porto Alegre-Salgado Filho International Airport (SBPA) |
| Time | Latitude | Longitude | Altitude | Speed | Heading |
|---|---|---|---|---|---|
| 2026-04-26 22:25 | -19.63254 | -43.96456 | 2815 ft | 0 kts | 63° |
| 2026-04-26 22:57 | -19.63256 | -43.96460 | 2808 ft | 2 kts | 61° |
| 2026-04-26 22:57 | -19.63266 | -43.96474 | 2801 ft | 2 kts | 47° |
| 2026-04-26 22:57 | -19.63278 | -43.96486 | 2806 ft | 2 kts | 19° |
| 2026-04-26 22:57 | -19.63295 | -43.96488 | 2794 ft | 2 kts | 342° |
| 2026-04-26 22:58 | -19.63309 | -43.96482 | 2768 ft | 2 kts | 323° |
| 2026-04-26 22:58 | -19.63313 | -43.96479 | 2762 ft | 0 kts | 320° |
| 2026-04-26 22:59 | -19.63312 | -43.96479 | 2752 ft | 1 kts | 320° |
| 2026-04-26 22:59 | -19.63299 | -43.96492 | 2755 ft | 5 kts | 317° |
| 2026-04-26 23:00 | -19.63268 | -43.96541 | 2753 ft | 11 kts | 303° |
| 2026-04-26 23:00 | -19.63211 | -43.96624 | 2752 ft | 14 kts | 287° |
| 2026-04-26 23:00 | -19.63259 | -43.96701 | 2752 ft | 14 kts | 234° |
| 2026-04-26 23:00 | -19.63221 | -43.96784 | 2752 ft | 16 kts | 319° |
| 2026-04-26 23:01 | -19.63121 | -43.96877 | 2753 ft | 22 kts | 319° |
| 2026-04-26 23:01 | -19.63004 | -43.96986 | 2753 ft | 22 kts | 319° |
| 2026-04-26 23:01 | -19.62888 | -43.97096 | 2753 ft | 22 kts | 318° |
| 2026-04-26 23:01 | -19.62769 | -43.97206 | 2753 ft | 23 kts | 319° |
| 2026-04-26 23:02 | -19.62653 | -43.97313 | 2753 ft | 22 kts | 319° |
| 2026-04-26 23:02 | -19.62536 | -43.97420 | 2752 ft | 22 kts | 319° |
| 2026-04-26 23:02 | -19.62419 | -43.97527 | 2753 ft | 22 kts | 319° |
| 2026-04-26 23:02 | -19.62304 | -43.97634 | 2801 ft | 22 kts | 318° |
| 2026-04-26 23:03 | -19.62246 | -43.97740 | 2801 ft | 15 kts | 247° |
| 2026-04-26 23:03 | -19.62332 | -43.97793 | 2801 ft | 16 kts | 186° |
| 2026-04-26 23:03 | -19.62419 | -43.97755 | 2799 ft | 8 kts | 140° |
| 2026-04-26 23:03 | -19.62424 | -43.97751 | 2799 ft | 10 kts | 140° |
| 2026-04-26 23:04 | -19.62667 | -43.97528 | 2799 ft | 81 kts | 139° |
| 2026-04-26 23:04 | -19.63260 | -43.96979 | 2801 ft | 140 kts | 139° |
| 2026-04-26 23:04 | -19.64118 | -43.96184 | 2829 ft | 182 kts | 140° |
| 2026-04-26 23:04 | -19.65070 | -43.95299 | 3425 ft | 182 kts | 139° |
| 2026-04-26 23:05 | -19.66028 | -43.94399 | 3994 ft | 184 kts | 139° |
| 2026-04-26 23:05 | -19.67006 | -43.93483 | 4310 ft | 196 kts | 140° |
| 2026-04-26 23:05 | -19.68097 | -43.92476 | 4461 ft | 219 kts | 140° |
| 2026-04-26 23:05 | -19.69303 | -43.91416 | 4770 ft | 229 kts | 148° |
| 2026-04-26 23:06 | -19.70771 | -43.91023 | 5158 ft | 229 kts | 189° |
| 2026-04-26 23:06 | -19.72173 | -43.91741 | 5649 ft | 228 kts | 224° |
| 2026-04-26 23:06 | -19.73155 | -43.93068 | 6201 ft | 230 kts | 237° |
| 2026-04-26 23:06 | -19.73762 | -43.94625 | 6708 ft | 232 kts | 264° |
| 2026-04-26 23:07 | -19.73595 | -43.96329 | 7210 ft | 235 kts | 287° |
| 2026-04-26 23:07 | -19.73135 | -43.97372 | 7550 ft | 237 kts | 303° |
| 2026-04-26 23:07 | -19.71439 | -43.98853 | 8247 ft | 243 kts | 337° |
| 2026-04-26 23:07 | -19.69851 | -43.99488 | 8792 ft | 244 kts | 339° |
| 2026-04-26 23:08 | -19.68246 | -44.00103 | 9328 ft | 246 kts | 339° |
| 2026-04-26 23:08 | -19.66632 | -44.00719 | 9864 ft | 248 kts | 339° |
| 2026-04-26 23:08 | -19.65064 | -44.01538 | 10110 ft | 261 kts | 319° |
| 2026-04-26 23:08 | -19.63936 | -44.03104 | 10256 ft | 280 kts | 290° |
| 2026-04-26 23:09 | -19.63686 | -44.05196 | 10389 ft | 299 kts | 259° |
| 2026-04-26 23:09 | -19.64540 | -44.07248 | 10513 ft | 318 kts | 229° |
| 2026-04-26 23:09 | -19.66175 | -44.08931 | 10639 ft | 338 kts | 220° |
| 2026-04-26 23:09 | -19.68043 | -44.10505 | 11013 ft | 347 kts | 217° |
| 2026-04-26 23:10 | -19.70003 | -44.12028 | 11556 ft | 351 kts | 216° |
| 2026-04-26 23:10 | -19.71995 | -44.13549 | 12115 ft | 354 kts | 215° |
| 2026-04-26 23:10 | -19.73343 | -44.14590 | 12485 ft | 356 kts | 216° |
| 2026-04-26 23:10 | -19.75342 | -44.16166 | 13016 ft | 359 kts | 216° |
| 2026-04-26 23:11 | -19.77338 | -44.17774 | 13527 ft | 362 kts | 217° |
| 2026-04-26 23:11 | -19.79339 | -44.19411 | 14021 ft | 365 kts | 217° |
| 2026-04-26 23:11 | -19.81349 | -44.21070 | 14438 ft | 368 kts | 217° |
| 2026-04-26 23:11 | -19.83384 | -44.22754 | 14851 ft | 373 kts | 218° |
| 2026-04-26 23:12 | -19.85438 | -44.24453 | 15281 ft | 376 kts | 218° |
| 2026-04-26 23:12 | -19.87507 | -44.26164 | 15705 ft | 379 kts | 218° |
| 2026-04-26 23:12 | -19.89593 | -44.27890 | 16137 ft | 382 kts | 218° |
| 2026-04-26 23:12 | -19.91696 | -44.29628 | 16579 ft | 384 kts | 218° |
| 2026-04-26 23:13 | -19.93816 | -44.31375 | 16994 ft | 387 kts | 218° |
| 2026-04-26 23:13 | -19.95952 | -44.33135 | 17424 ft | 390 kts | 218° |
| 2026-04-26 23:13 | -19.98100 | -44.34909 | 17868 ft | 392 kts | 219° |
| 2026-04-26 23:13 | -20.00265 | -44.36697 | 18289 ft | 395 kts | 219° |
| 2026-04-26 23:14 | -20.02443 | -44.38498 | 18656 ft | 398 kts | 219° |
| 2026-04-26 23:14 | -20.04632 | -44.40312 | 19048 ft | 400 kts | 219° |
| 2026-04-26 23:14 | -20.06836 | -44.42134 | 19457 ft | 402 kts | 219° |
| 2026-04-26 23:14 | -20.09050 | -44.43964 | 19856 ft | 404 kts | 219° |
| 2026-04-26 23:15 | -20.11272 | -44.45801 | 20266 ft | 406 kts | 219° |
| 2026-04-26 23:15 | -20.13505 | -44.47649 | 20676 ft | 407 kts | 219° |
| 2026-04-26 23:15 | -20.15747 | -44.49506 | 21064 ft | 409 kts | 219° |
| 2026-04-26 23:15 | -20.18000 | -44.51370 | 21439 ft | 411 kts | 218° |
| 2026-04-26 23:16 | -20.20262 | -44.53243 | 21820 ft | 413 kts | 218° |
| 2026-04-26 23:16 | -20.22533 | -44.55125 | 22171 ft | 415 kts | 219° |
| 2026-04-26 23:16 | -20.24844 | -44.57041 | 22527 ft | 417 kts | 218° |
| 2026-04-26 23:16 | -20.27108 | -44.58917 | 22871 ft | 419 kts | 218° |
| 2026-04-26 23:17 | -20.29414 | -44.60828 | 23222 ft | 421 kts | 218° |
| 2026-04-26 23:17 | -20.31728 | -44.62748 | 23534 ft | 422 kts | 218° |
| 2026-04-26 23:17 | -20.34081 | -44.64699 | 23815 ft | 424 kts | 218° |
| 2026-04-26 23:17 | -20.36415 | -44.66634 | 24087 ft | 426 kts | 218° |
| 2026-04-26 23:18 | -20.38759 | -44.68579 | 24358 ft | 427 kts | 219° |
| 2026-04-26 23:18 | -20.41107 | -44.70530 | 24621 ft | 429 kts | 219° |
| 2026-04-26 23:18 | -20.43460 | -44.72491 | 24898 ft | 431 kts | 219° |
| 2026-04-26 23:18 | -20.45823 | -44.74466 | 25171 ft | 432 kts | 219° |
| 2026-04-26 23:19 | -20.48190 | -44.76441 | 25448 ft | 433 kts | 219° |
| 2026-04-26 23:19 | -20.50580 | -44.78413 | 25722 ft | 435 kts | 218° |
| 2026-04-26 23:19 | -20.53011 | -44.80346 | 25987 ft | 436 kts | 217° |
| 2026-04-26 23:19 | -20.55475 | -44.82255 | 26262 ft | 438 kts | 217° |
| 2026-04-26 23:20 | -20.57956 | -44.84156 | 26534 ft | 439 kts | 217° |
| 2026-04-26 23:20 | -20.60438 | -44.86060 | 26796 ft | 441 kts | 217° |
| 2026-04-26 23:20 | -20.62927 | -44.87980 | 27083 ft | 443 kts | 217° |
| 2026-04-26 23:20 | -20.65421 | -44.89921 | 27345 ft | 444 kts | 218° |
| 2026-04-26 23:21 | -20.67918 | -44.91876 | 27609 ft | 445 kts | 218° |
| 2026-04-26 23:21 | -20.70417 | -44.93839 | 27881 ft | 447 kts | 218° |
| 2026-04-26 23:21 | -20.72926 | -44.95809 | 28143 ft | 448 kts | 218° |
| 2026-04-26 23:21 | -20.75444 | -44.97786 | 28410 ft | 450 kts | 218° |
| 2026-04-26 23:22 | -20.77967 | -44.99765 | 28664 ft | 451 kts | 218° |
| 2026-04-26 23:22 | -20.80499 | -45.01753 | 28923 ft | 452 kts | 218° |
| 2026-04-26 23:22 | -20.83034 | -45.03748 | 29175 ft | 454 kts | 218° |
| 2026-04-26 23:22 | -20.85582 | -45.05760 | 29436 ft | 455 kts | 218° |
| 2026-04-26 23:23 | -20.88132 | -45.07771 | 29697 ft | 457 kts | 218° |
| 2026-04-26 23:23 | -20.90695 | -45.09790 | 29964 ft | 458 kts | 218° |
| 2026-04-26 23:23 | -20.93267 | -45.11816 | 30215 ft | 459 kts | 219° |
| 2026-04-26 23:23 | -20.95837 | -45.13841 | 30542 ft | 457 kts | 219° |
| 2026-04-26 23:24 | -20.98393 | -45.15856 | 30848 ft | 456 kts | 219° |
| 2026-04-26 23:24 | -21.00943 | -45.17871 | 31153 ft | 455 kts | 219° |
| 2026-04-26 23:24 | -21.03488 | -45.19883 | 31441 ft | 454 kts | 219° |
| 2026-04-26 23:24 | -21.06034 | -45.21887 | 31751 ft | 454 kts | 219° |
| 2026-04-26 23:25 | -21.08575 | -45.23884 | 32058 ft | 453 kts | 219° |
| 2026-04-26 23:25 | -21.11111 | -45.25881 | 32353 ft | 452 kts | 219° |
| 2026-04-26 23:25 | -21.13638 | -45.27874 | 32663 ft | 451 kts | 219° |
| 2026-04-26 23:25 | -21.16168 | -45.29874 | 32954 ft | 451 kts | 219° |
| 2026-04-26 23:26 | -21.18691 | -45.31868 | 33257 ft | 450 kts | 219° |
| 2026-04-26 23:26 | -21.21205 | -45.33859 | 33562 ft | 449 kts | 219° |
| 2026-04-26 23:26 | -21.23719 | -45.35849 | 33876 ft | 449 kts | 219° |
| 2026-04-26 23:26 | -21.26224 | -45.37831 | 34158 ft | 448 kts | 219° |
| 2026-04-26 23:27 | -21.28730 | -45.39813 | 34415 ft | 447 kts | 219° |
| 2026-04-26 23:27 | -21.31259 | -45.41817 | 34659 ft | 446 kts | 220° |
| 2026-04-26 23:27 | -21.33720 | -45.43771 | 34898 ft | 445 kts | 220° |
| 2026-04-26 23:27 | -21.36208 | -45.45747 | 35136 ft | 445 kts | 220° |
| 2026-04-26 23:28 | -21.38699 | -45.47725 | 35372 ft | 445 kts | 220° |
| 2026-04-26 23:28 | -21.41185 | -45.49699 | 35611 ft | 444 kts | 220° |
| 2026-04-26 23:28 | -21.43700 | -45.51698 | 35849 ft | 444 kts | 220° |
| 2026-04-26 23:28 | -21.46179 | -45.53674 | 36001 ft | 444 kts | 220° |
| 2026-04-26 23:29 | -21.48658 | -45.55647 | 36043 ft | 444 kts | 220° |
| 2026-04-26 23:29 | -21.53634 | -45.59575 | 36030 ft | 443 kts | 219° |
| 2026-04-26 23:30 | -21.58615 | -45.63469 | 36033 ft | 443 kts | 219° |
| 2026-04-26 23:30 | -21.63589 | -45.67366 | 36036 ft | 443 kts | 220° |
| 2026-04-26 23:31 | -21.68559 | -45.71279 | 36031 ft | 443 kts | 220° |
| 2026-04-26 23:31 | -21.73539 | -45.75190 | 36045 ft | 443 kts | 220° |
| 2026-04-26 23:32 | -21.78513 | -45.79107 | 36059 ft | 443 kts | 220° |
| 2026-04-26 23:32 | -21.83487 | -45.83037 | 36062 ft | 443 kts | 220° |
| 2026-04-26 23:33 | -21.88460 | -45.86972 | 36074 ft | 444 kts | 220° |
| 2026-04-26 23:33 | -21.93432 | -45.90899 | 36076 ft | 444 kts | 220° |
| 2026-04-26 23:34 | -21.98421 | -45.94840 | 36068 ft | 443 kts | 220° |
| 2026-04-26 23:34 | -22.03397 | -45.98772 | 36066 ft | 443 kts | 220° |
| 2026-04-26 23:35 | -22.08372 | -46.02711 | 36071 ft | 444 kts | 220° |
| 2026-04-26 23:35 | -22.13340 | -46.06662 | 36073 ft | 443 kts | 220° |
| 2026-04-26 23:36 | -22.18303 | -46.10610 | 36075 ft | 443 kts | 220° |
| 2026-04-26 23:36 | -22.23274 | -46.14555 | 36076 ft | 443 kts | 220° |
| 2026-04-26 23:37 | -22.28246 | -46.18495 | 36078 ft | 443 kts | 220° |
| 2026-04-26 23:37 | -22.33441 | -46.22106 | 36079 ft | 450 kts | 209° |
| 2026-04-26 23:38 | -22.39185 | -46.24818 | 36075 ft | 451 kts | 208° |
| 2026-04-26 23:38 | -22.44935 | -46.27527 | 36076 ft | 450 kts | 208° |
| 2026-04-26 23:39 | -22.50682 | -46.30241 | 36073 ft | 450 kts | 208° |
| 2026-04-26 23:39 | -22.56425 | -46.32960 | 36068 ft | 451 kts | 208° |
| 2026-04-26 23:40 | -22.62167 | -46.35676 | 36072 ft | 451 kts | 208° |
| 2026-04-26 23:40 | -22.67918 | -46.38398 | 36061 ft | 450 kts | 208° |
| 2026-04-26 23:41 | -22.73660 | -46.41120 | 36060 ft | 450 kts | 208° |
| 2026-04-26 23:41 | -22.79402 | -46.43840 | 36052 ft | 450 kts | 208° |
| 2026-04-26 23:42 | -22.85142 | -46.46570 | 36051 ft | 451 kts | 209° |
| 2026-04-26 23:42 | -22.93757 | -46.50670 | 36043 ft | 450 kts | 209° |
| 2026-04-26 23:43 | -22.98560 | -46.52962 | 36038 ft | 451 kts | 209° |
| 2026-04-26 23:43 | -23.04306 | -46.55697 | 36033 ft | 450 kts | 209° |
| 2026-04-26 23:44 | -23.10044 | -46.58431 | 36034 ft | 451 kts | 209° |
| 2026-04-26 23:44 | -23.14960 | -46.60779 | 36041 ft | 450 kts | 209° |
| 2026-04-26 23:45 | -23.20694 | -46.63523 | 36045 ft | 451 kts | 209° |
| 2026-04-26 23:45 | -23.26437 | -46.66267 | 36050 ft | 450 kts | 209° |
| 2026-04-26 23:46 | -23.31902 | -46.68883 | 36039 ft | 450 kts | 209° |
| 2026-04-26 23:46 | -23.37308 | -46.71481 | 36043 ft | 450 kts | 209° |
| 2026-04-26 23:47 | -23.43086 | -46.74263 | 36054 ft | 451 kts | 210° |
| 2026-04-26 23:47 | -23.48815 | -46.77024 | 36054 ft | 451 kts | 210° |
| 2026-04-26 23:48 | -23.54553 | -46.79783 | 36044 ft | 450 kts | 210° |
| 2026-04-26 23:48 | -23.60284 | -46.82531 | 36059 ft | 450 kts | 210° |
| 2026-04-26 23:49 | -23.66020 | -46.85283 | 36050 ft | 450 kts | 210° |
| 2026-04-26 23:49 | -23.71758 | -46.88043 | 36037 ft | 451 kts | 210° |
| 2026-04-26 23:50 | -23.77515 | -46.90812 | 36010 ft | 452 kts | 210° |
| 2026-04-26 23:50 | -23.83263 | -46.93589 | 35994 ft | 452 kts | 210° |
| 2026-04-26 23:51 | -23.89017 | -46.96377 | 35986 ft | 452 kts | 210° |
| 2026-04-26 23:51 | -23.94770 | -46.99163 | 35981 ft | 453 kts | 210° |
| 2026-04-26 23:52 | -24.00571 | -47.01969 | 35974 ft | 453 kts | 210° |
| 2026-04-26 23:52 | -24.06338 | -47.04770 | 35968 ft | 453 kts | 210° |
| 2026-04-26 23:53 | -24.12095 | -47.07568 | 35960 ft | 453 kts | 210° |
| 2026-04-26 23:53 | -24.17846 | -47.10362 | 35952 ft | 452 kts | 210° |
| 2026-04-26 23:54 | -24.23594 | -47.13160 | 35951 ft | 452 kts | 211° |
| 2026-04-26 23:54 | -24.29060 | -47.16422 | 35944 ft | 444 kts | 219° |
| 2026-04-26 23:55 | -24.34278 | -47.20048 | 35937 ft | 443 kts | 219° |
| 2026-04-26 23:55 | -24.39491 | -47.23662 | 35934 ft | 442 kts | 219° |
| 2026-04-26 23:56 | -24.44690 | -47.27275 | 35931 ft | 442 kts | 219° |
| 2026-04-26 23:56 | -24.49883 | -47.30886 | 35932 ft | 441 kts | 219° |
| 2026-04-26 23:57 | -24.55064 | -47.34498 | 35931 ft | 440 kts | 219° |
| 2026-04-26 23:57 | -24.60232 | -47.38108 | 35933 ft | 440 kts | 219° |
| 2026-04-26 23:58 | -24.65390 | -47.41712 | 35932 ft | 439 kts | 219° |
| 2026-04-26 23:58 | -24.70540 | -47.45306 | 35930 ft | 438 kts | 219° |
| 2026-04-26 23:59 | -24.75678 | -47.48903 | 35932 ft | 437 kts | 219° |
| 2026-04-26 23:59 | -24.80811 | -47.52497 | 35924 ft | 437 kts | 219° |
| 2026-04-27 00:00 | -24.85937 | -47.56099 | 35926 ft | 437 kts | 219° |
| 2026-04-27 00:00 | -24.91062 | -47.59691 | 35925 ft | 437 kts | 219° |
| 2026-04-27 00:01 | -24.96226 | -47.63312 | 35930 ft | 437 kts | 219° |
| 2026-04-27 00:01 | -25.01355 | -47.66916 | 35937 ft | 437 kts | 220° |
| 2026-04-27 00:02 | -25.06480 | -47.70521 | 35930 ft | 437 kts | 220° |
| 2026-04-27 00:02 | -25.11604 | -47.74128 | 35934 ft | 436 kts | 220° |
| 2026-04-27 00:03 | -25.16712 | -47.77734 | 35939 ft | 436 kts | 220° |
| 2026-04-27 00:03 | -25.21819 | -47.81341 | 35940 ft | 436 kts | 220° |
| 2026-04-27 00:04 | -25.26930 | -47.84951 | 35938 ft | 436 kts | 220° |
| 2026-04-27 00:04 | -25.32041 | -47.88570 | 35936 ft | 436 kts | 220° |
| 2026-04-27 00:05 | -25.37145 | -47.92187 | 35937 ft | 436 kts | 220° |
| 2026-04-27 00:05 | -25.42264 | -47.95825 | 35948 ft | 438 kts | 220° |
| 2026-04-27 00:06 | -25.47387 | -47.99463 | 35936 ft | 438 kts | 220° |
| 2026-04-27 00:06 | -25.52511 | -48.03097 | 35945 ft | 437 kts | 220° |
| 2026-04-27 00:07 | -25.57635 | -48.06745 | 35953 ft | 438 kts | 220° |
| 2026-04-27 00:07 | -25.62758 | -48.10402 | 35950 ft | 438 kts | 220° |
| 2026-04-27 00:08 | -25.67883 | -48.14045 | 35946 ft | 438 kts | 220° |
| 2026-04-27 00:08 | -25.73013 | -48.17688 | 35947 ft | 438 kts | 220° |
| 2026-04-27 00:09 | -25.78131 | -48.21335 | 35948 ft | 437 kts | 220° |
| 2026-04-27 00:09 | -25.83250 | -48.24989 | 35946 ft | 437 kts | 220° |
| 2026-04-27 00:10 | -25.88361 | -48.28644 | 35945 ft | 437 kts | 220° |
| 2026-04-27 00:10 | -25.93511 | -48.32316 | 35937 ft | 437 kts | 220° |
| 2026-04-27 00:11 | -25.98622 | -48.35974 | 35937 ft | 437 kts | 220° |
| 2026-04-27 00:11 | -26.03739 | -48.39643 | 35945 ft | 438 kts | 220° |
| 2026-04-27 00:12 | -26.08846 | -48.43316 | 35934 ft | 437 kts | 221° |
| 2026-04-27 00:12 | -26.13973 | -48.46987 | 35923 ft | 435 kts | 220° |
| 2026-04-27 00:13 | -26.19092 | -48.50648 | 35948 ft | 439 kts | 219° |
| 2026-04-27 00:13 | -26.24229 | -48.54339 | 35951 ft | 438 kts | 220° |
| 2026-04-27 00:14 | -26.29334 | -48.58035 | 35958 ft | 438 kts | 220° |
| 2026-04-27 00:14 | -26.34448 | -48.61728 | 35950 ft | 438 kts | 220° |
| 2026-04-27 00:15 | -26.39557 | -48.65411 | 35938 ft | 438 kts | 221° |
| 2026-04-27 00:15 | -26.43802 | -48.68475 | 35948 ft | 436 kts | 221° |
| 2026-04-27 00:16 | -26.48875 | -48.72152 | 35939 ft | 435 kts | 221° |
| 2026-04-27 00:16 | -26.53943 | -48.75889 | 35948 ft | 437 kts | 222° |
| 2026-04-27 00:17 | -26.59022 | -48.79669 | 35960 ft | 440 kts | 222° |
| 2026-04-27 00:17 | -26.64136 | -48.83448 | 35957 ft | 439 kts | 222° |
| 2026-04-27 00:18 | -26.69277 | -48.87228 | 35954 ft | 440 kts | 221° |
| 2026-04-27 00:18 | -26.74381 | -48.90939 | 35962 ft | 440 kts | 221° |
| 2026-04-27 00:19 | -26.79511 | -48.94677 | 35961 ft | 440 kts | 222° |
| 2026-04-27 00:19 | -26.84627 | -48.98416 | 35961 ft | 439 kts | 222° |
| 2026-04-27 00:20 | -26.89759 | -49.02179 | 35967 ft | 438 kts | 223° |
| 2026-04-27 00:20 | -26.94854 | -49.05922 | 35959 ft | 438 kts | 223° |
| 2026-04-27 00:21 | -26.99966 | -49.09668 | 35960 ft | 440 kts | 223° |
| 2026-04-27 00:21 | -27.05062 | -49.13416 | 35967 ft | 439 kts | 223° |
| 2026-04-27 00:22 | -27.10175 | -49.17174 | 35983 ft | 438 kts | 223° |
| 2026-04-27 00:22 | -27.15283 | -49.20934 | 35985 ft | 438 kts | 223° |
| 2026-04-27 00:23 | -27.20372 | -49.24686 | 35987 ft | 437 kts | 224° |
| 2026-04-27 00:23 | -27.25445 | -49.28430 | 35992 ft | 436 kts | 224° |
| 2026-04-27 00:24 | -27.30524 | -49.32176 | 35997 ft | 436 kts | 224° |
| 2026-04-27 00:24 | -27.35586 | -49.35927 | 35993 ft | 434 kts | 224° |
| 2026-04-27 00:25 | -27.40630 | -49.39669 | 36002 ft | 434 kts | 224° |
| 2026-04-27 00:25 | -27.45674 | -49.43412 | 36008 ft | 434 kts | 224° |
| 2026-04-27 00:26 | -27.50713 | -49.47147 | 36003 ft | 433 kts | 225° |
| 2026-04-27 00:26 | -27.55739 | -49.50888 | 36003 ft | 433 kts | 225° |
| 2026-04-27 00:27 | -27.60767 | -49.54625 | 36004 ft | 433 kts | 225° |
| 2026-04-27 00:27 | -27.65812 | -49.58356 | 36014 ft | 434 kts | 225° |
| 2026-04-27 00:28 | -27.70863 | -49.62107 | 36019 ft | 434 kts | 225° |
| 2026-04-27 00:28 | -27.75903 | -49.65842 | 36016 ft | 434 kts | 225° |
| 2026-04-27 00:29 | -27.81017 | -49.69503 | 36025 ft | 435 kts | 224° |
| 2026-04-27 00:29 | -27.86163 | -49.73131 | 36032 ft | 435 kts | 224° |
| 2026-04-27 00:30 | -27.91285 | -49.76764 | 36036 ft | 435 kts | 224° |
| 2026-04-27 00:30 | -27.96386 | -49.80413 | 36041 ft | 433 kts | 224° |
| 2026-04-27 00:31 | -28.01474 | -49.84066 | 36043 ft | 432 kts | 224° |
| 2026-04-27 00:31 | -28.06589 | -49.87729 | 36046 ft | 432 kts | 225° |
| 2026-04-27 00:32 | -28.11632 | -49.91340 | 36056 ft | 432 kts | 225° |
| 2026-04-27 00:32 | -28.16749 | -49.95035 | 36034 ft | 434 kts | 225° |
| 2026-04-27 00:33 | -28.21834 | -49.98669 | 36020 ft | 432 kts | 225° |
| 2026-04-27 00:33 | -28.26884 | -50.02309 | 36042 ft | 426 kts | 225° |
| 2026-04-27 00:34 | -28.31897 | -50.05919 | 36051 ft | 429 kts | 224° |
| 2026-04-27 00:34 | -28.34415 | -50.07736 | 35870 ft | 429 kts | 226° |
| 2026-04-27 00:34 | -28.36946 | -50.09584 | 35039 ft | 434 kts | 224° |
| 2026-04-27 00:35 | -28.39483 | -50.11423 | 34347 ft | 433 kts | 225° |
| 2026-04-27 00:35 | -28.42020 | -50.13256 | 33661 ft | 430 kts | 225° |
| 2026-04-27 00:35 | -28.44526 | -50.15062 | 33232 ft | 426 kts | 225° |
| 2026-04-27 00:35 | -28.47041 | -50.16874 | 32735 ft | 426 kts | 225° |
| 2026-04-27 00:36 | -28.49541 | -50.18675 | 32261 ft | 423 kts | 225° |
| 2026-04-27 00:36 | -28.52008 | -50.20453 | 31774 ft | 418 kts | 225° |
| 2026-04-27 00:36 | -28.54453 | -50.22228 | 31288 ft | 417 kts | 226° |
| 2026-04-27 00:36 | -28.56881 | -50.23982 | 30815 ft | 411 kts | 226° |
| 2026-04-27 00:37 | -28.59284 | -50.25724 | 30343 ft | 408 kts | 226° |
| 2026-04-27 00:37 | -28.61666 | -50.27450 | 29843 ft | 405 kts | 225° |
| 2026-04-27 00:37 | -28.64028 | -50.29163 | 29349 ft | 400 kts | 226° |
| 2026-04-27 00:37 | -28.66354 | -50.30857 | 28895 ft | 395 kts | 225° |
| 2026-04-27 00:38 | -28.68649 | -50.32523 | 28433 ft | 389 kts | 226° |
| 2026-04-27 00:38 | -28.70923 | -50.34177 | 27992 ft | 387 kts | 226° |
| 2026-04-27 00:38 | -28.73168 | -50.35823 | 27505 ft | 380 kts | 228° |
| 2026-04-27 00:38 | -28.75323 | -50.37539 | 27013 ft | 375 kts | 230° |
| 2026-04-27 00:39 | -28.77404 | -50.39319 | 26558 ft | 373 kts | 230° |
| 2026-04-27 00:39 | -28.79470 | -50.41146 | 26080 ft | 370 kts | 231° |
| 2026-04-27 00:39 | -28.81509 | -50.42945 | 25633 ft | 372 kts | 230° |
| 2026-04-27 00:39 | -28.83561 | -50.44740 | 25193 ft | 373 kts | 230° |
| 2026-04-27 00:40 | -28.85631 | -50.46546 | 24740 ft | 375 kts | 229° |
| 2026-04-27 00:40 | -28.87712 | -50.48327 | 24306 ft | 372 kts | 229° |
| 2026-04-27 00:40 | -28.89794 | -50.50093 | 23859 ft | 373 kts | 229° |
| 2026-04-27 00:40 | -28.91874 | -50.51859 | 23384 ft | 374 kts | 229° |
| 2026-04-27 00:41 | -28.93955 | -50.53640 | 22878 ft | 374 kts | 229° |
| 2026-04-27 00:41 | -28.96034 | -50.55423 | 22407 ft | 371 kts | 228° |
| 2026-04-27 00:41 | -28.98074 | -50.57155 | 21950 ft | 360 kts | 228° |
| 2026-04-27 00:41 | -29.00057 | -50.58835 | 21476 ft | 349 kts | 227° |
| 2026-04-27 00:42 | -29.01973 | -50.60468 | 21019 ft | 340 kts | 227° |
| 2026-04-27 00:42 | -29.03842 | -50.62069 | 20565 ft | 332 kts | 228° |
| 2026-04-27 00:42 | -29.05662 | -50.63645 | 20131 ft | 325 kts | 227° |
| 2026-04-27 00:42 | -29.07450 | -50.65191 | 19684 ft | 320 kts | 227° |
| 2026-04-27 00:43 | -29.09209 | -50.66699 | 19259 ft | 311 kts | 227° |
| 2026-04-27 00:43 | -29.10946 | -50.68137 | 18840 ft | 307 kts | 221° |
| 2026-04-27 00:43 | -29.12891 | -50.69195 | 18410 ft | 316 kts | 208° |
| 2026-04-27 00:43 | -29.15078 | -50.69725 | 17917 ft | 328 kts | 194° |
| 2026-04-27 00:44 | -29.17363 | -50.69849 | 17443 ft | 328 kts | 192° |
| 2026-04-27 00:44 | -29.19651 | -50.69960 | 16982 ft | 330 kts | 192° |
| 2026-04-27 00:44 | -29.21949 | -50.70075 | 16518 ft | 331 kts | 192° |
| 2026-04-27 00:44 | -29.24249 | -50.70195 | 16053 ft | 332 kts | 191° |
| 2026-04-27 00:45 | -29.26572 | -50.70320 | 15580 ft | 333 kts | 191° |
| 2026-04-27 00:45 | -29.28891 | -50.70447 | 15127 ft | 334 kts | 190° |
| 2026-04-27 00:45 | -29.31223 | -50.70571 | 14679 ft | 336 kts | 189° |
| 2026-04-27 00:45 | -29.33568 | -50.70678 | 14275 ft | 337 kts | 189° |
| 2026-04-27 00:46 | -29.35908 | -50.70773 | 13878 ft | 336 kts | 188° |
| 2026-04-27 00:46 | -29.38251 | -50.70863 | 13423 ft | 336 kts | 188° |
| 2026-04-27 00:46 | -29.40575 | -50.70954 | 13010 ft | 333 kts | 188° |
| 2026-04-27 00:46 | -29.42878 | -50.71046 | 12597 ft | 329 kts | 188° |
| 2026-04-27 00:47 | -29.45155 | -50.71141 | 12207 ft | 327 kts | 188° |
| 2026-04-27 00:47 | -29.47419 | -50.71236 | 11812 ft | 325 kts | 188° |
| 2026-04-27 00:47 | -29.48914 | -50.71300 | 11540 ft | 323 kts | 187° |
| 2026-04-27 00:47 | -29.51910 | -50.71431 | 11027 ft | 321 kts | 187° |
| 2026-04-27 00:48 | -29.53382 | -50.71497 | 10765 ft | 320 kts | 187° |
| 2026-04-27 00:48 | -29.55602 | -50.71595 | 10379 ft | 318 kts | 187° |
| 2026-04-27 00:48 | -29.57790 | -50.71690 | 10147 ft | 310 kts | 187° |
| 2026-04-27 00:48 | -29.59893 | -50.71778 | 9958 ft | 293 kts | 187° |
| 2026-04-27 00:49 | -29.61888 | -50.71860 | 9742 ft | 283 kts | 187° |
| 2026-04-27 00:49 | -29.63854 | -50.71946 | 9606 ft | 282 kts | 187° |
| 2026-04-27 00:49 | -29.65816 | -50.72035 | 9366 ft | 281 kts | 187° |
| 2026-04-27 00:49 | -29.67756 | -50.72123 | 9072 ft | 277 kts | 187° |
| 2026-04-27 00:50 | -29.69690 | -50.72210 | 8765 ft | 273 kts | 187° |
| 2026-04-27 00:50 | -29.73135 | -50.73228 | 8213 ft | 249 kts | 214° |
| 2026-04-27 00:50 | -29.74507 | -50.74387 | 7947 ft | 242 kts | 228° |
| 2026-04-27 00:51 | -29.75703 | -50.75756 | 7663 ft | 238 kts | 229° |
| 2026-04-27 00:51 | -29.76872 | -50.77086 | 7403 ft | 235 kts | 228° |
| 2026-04-27 00:51 | -29.78030 | -50.78392 | 7175 ft | 231 kts | 229° |
| 2026-04-27 00:51 | -29.79169 | -50.79676 | 6926 ft | 227 kts | 229° |
| 2026-04-27 00:52 | -29.80289 | -50.80941 | 6695 ft | 221 kts | 229° |
| 2026-04-27 00:52 | -29.81271 | -50.82046 | 6472 ft | 216 kts | 229° |
| 2026-04-27 00:52 | -29.82328 | -50.83242 | 6218 ft | 211 kts | 229° |
| 2026-04-27 00:52 | -29.83370 | -50.84426 | 5985 ft | 210 kts | 230° |
| 2026-04-27 00:53 | -29.84403 | -50.85608 | 5757 ft | 209 kts | 230° |
| 2026-04-27 00:53 | -29.85432 | -50.86782 | 5539 ft | 207 kts | 230° |
| 2026-04-27 00:53 | -29.86453 | -50.87942 | 5301 ft | 205 kts | 230° |
| 2026-04-27 00:53 | -29.87465 | -50.89091 | 5080 ft | 204 kts | 230° |
| 2026-04-27 00:54 | -29.88474 | -50.90242 | 4861 ft | 204 kts | 230° |
| 2026-04-27 00:54 | -29.89484 | -50.91390 | 4631 ft | 204 kts | 230° |
| 2026-04-27 00:54 | -29.90585 | -50.92437 | 4413 ft | 207 kts | 218° |
| 2026-04-27 00:54 | -29.91868 | -50.93182 | 4193 ft | 205 kts | 207° |
| 2026-04-27 00:55 | -29.93158 | -50.93746 | 3966 ft | 192 kts | 207° |
| 2026-04-27 00:55 | -29.94368 | -50.94282 | 3742 ft | 181 kts | 207° |
| 2026-04-27 00:55 | -29.95507 | -50.94790 | 3544 ft | 171 kts | 208° |
| 2026-04-27 00:55 | -29.96588 | -50.95273 | 3360 ft | 162 kts | 208° |
| 2026-04-27 00:56 | -29.97613 | -50.95744 | 3176 ft | 156 kts | 213° |
| 2026-04-27 00:56 | -29.98497 | -50.96421 | 3011 ft | 151 kts | 228° |
| 2026-04-27 00:56 | -29.99168 | -50.97322 | 2842 ft | 146 kts | 242° |
| 2026-04-27 00:56 | -29.99601 | -50.98366 | 2690 ft | 144 kts | 253° |
| 2026-04-27 00:57 | -29.99789 | -50.99493 | 2539 ft | 142 kts | 266° |
| 2026-04-27 00:57 | -29.99777 | -51.00638 | 2372 ft | 143 kts | 271° |
| 2026-04-27 00:57 | -29.99753 | -51.01786 | 2200 ft | 144 kts | 271° |
| 2026-04-27 00:57 | -29.99731 | -51.02941 | 2035 ft | 143 kts | 272° |
| 2026-04-27 00:58 | -29.99711 | -51.04069 | 1892 ft | 140 kts | 272° |
| 2026-04-27 00:58 | -29.99690 | -51.05188 | 1720 ft | 139 kts | 272° |
| 2026-04-27 00:58 | -29.99668 | -51.06303 | 1556 ft | 139 kts | 272° |
| 2026-04-27 00:58 | -29.99646 | -51.07422 | 1376 ft | 139 kts | 272° |
| 2026-04-27 00:59 | -29.99623 | -51.08536 | 1182 ft | 139 kts | 272° |
| 2026-04-27 00:59 | -29.99601 | -51.09647 | 998 ft | 139 kts | 272° |
| 2026-04-27 00:59 | -29.99580 | -51.10762 | 817 ft | 139 kts | 273° |
| 2026-04-27 00:59 | -29.99558 | -51.11877 | 628 ft | 139 kts | 272° |
| 2026-04-27 01:00 | -29.99544 | -51.13009 | 441 ft | 141 kts | 271° |
| 2026-04-27 01:00 | -29.99528 | -51.14140 | 243 ft | 141 kts | 272° |
| 2026-04-27 01:00 | -29.99502 | -51.15272 | 43 ft | 139 kts | 272° |
| 2026-04-27 01:00 | -29.99479 | -51.16251 | 25 ft | 101 kts | 271° |
| 2026-04-27 01:01 | -29.99466 | -51.16867 | 19 ft | 58 kts | 271° |
| 2026-04-27 01:01 | -29.99459 | -51.17291 | 20 ft | 47 kts | 271° |
| 2026-04-27 01:01 | -29.99450 | -51.17641 | 22 ft | 26 kts | 276° |
| 2026-04-27 01:01 | -29.99363 | -51.17702 | 21 ft | 16 kts | 359° |
| 2026-04-27 01:02 | -29.99305 | -51.17700 | 20 ft | 1 kts | 2° |
| 2026-04-27 01:02 | -29.99291 | -51.17699 | 20 ft | 3 kts | 2° |
| 2026-04-27 01:02 | -29.99275 | -51.17685 | 20 ft | 3 kts | 52° |
| 2026-04-27 01:02 | -29.99266 | -51.17665 | 21 ft | 2 kts | 67° |
| 2026-04-27 01:03 | -29.99264 | -51.17657 | 20 ft | 1 kts | 75° |
| 2026-04-27 01:03 | -29.99263 | -51.17647 | 20 ft | 2 kts | 80° |
| 2026-04-27 01:03 | -29.99261 | -51.17622 | 20 ft | 6 kts | 90° |
| 2026-04-27 01:03 | -29.99264 | -51.17525 | 20 ft | 13 kts | 91° |
| 2026-04-27 01:04 | -29.99266 | -51.17435 | 20 ft | 10 kts | 90° |
| 2026-04-27 01:04 | -29.99231 | -51.17396 | 20 ft | 6 kts | 5° |
| 2026-04-27 01:04 | -29.99197 | -51.17384 | 20 ft | 4 kts | 31° |
| 2026-04-27 01:04 | -29.99186 | -51.17368 | 22 ft | 2 kts | 59° |
| 2026-04-27 01:05 | -29.99182 | -51.17345 | 20 ft | 5 kts | 87° |
| 2026-04-27 01:05 | -29.99174 | -51.17309 | 22 ft | 4 kts | 50° |
| 2026-04-27 01:05 | -29.99158 | -51.17305 | 21 ft | 2 kts | 3° |
| 2026-04-27 01:05 | -29.99145 | -51.17305 | 23 ft | 3 kts | 3° |
| 2026-04-27 01:06 | -29.99126 | -51.17304 | 20 ft | 2 kts | 1° |
| 2026-04-27 01:06 | -29.99123 | -51.17304 | 20 ft | 0 kts | 1° |